Keetley, Utah
Current Conditions -  °F | °C
As of 2:15 PM on Sunday 21 Dec 2014 (Local Time) from K36U Reporting Station
Unknown Precip Unknown Precip  
Wind Chill: 29°   Ceiling: 1400
Heat Index: 36°   Visibility: 7mi
Dew Point: 36°   Wind: 8mph
Humidity: 100%   Direction: 120°ESE
Pressure: 29.91"   Gusts: NA
Location:  40.2386°N, 111.149°W
Report Text: K36U 212115Z AUTO 12007KT 7SM UP BKN014 OVC020 02/02 A2991 RMK AO2
Loading
Personal Weather Stations






























Interactive Weather Map New forecast layout! Learn more

10-Day Weather Forecast

Advertisements
Track Severe Weather on mobile